sim
Sign-in with your pilot id or email,
or register
Callsign
Passwort

Schedule Details

Flight Number: OEO4539
Departure: Paderborn Lippstadt Airport (EDLP) at 06:55
Arrival: Munich Airport (EDDM) at 08:10

Weather Information
Getting current METAR information for EDLP 241950Z 13008KT CAVOK 16/06 Q1000
Getting current METAR information for EDDM 241950Z 06005KT CAVOK 16/14 Q1003 NOSIG

Schedule Frequency

Route Map